createdAt,value
2022-11-27T00:00:35.764Z,89.29
2022-11-27T00:01:35.772Z,89.60
2022-11-27T00:02:40.406Z,89.64
2022-11-27T00:03:36.909Z,89.54
2022-11-27T00:04:35.746Z,89.13
2022-11-27T00:05:35.752Z,90.46
2022-11-27T00:06:35.708Z,90.46
2022-11-27T00:07:35.877Z,90.05
2022-11-27T00:08:35.679Z,90.26
2022-11-27T00:09:35.695Z,90.16
2022-11-27T00:10:35.685Z,90.36
2022-11-27T00:11:35.694Z,90.16
2022-11-27T00:12:35.658Z,90.05
2022-11-27T00:13:35.625Z,90.05
2022-11-27T00:14:35.633Z,90.26
2022-11-27T00:15:35.672Z,90.56
2022-11-27T00:16:35.590Z,90.97
2022-11-27T00:17:35.594Z,90.97
2022-11-27T00:18:35.574Z,90.67
2022-11-27T00:19:35.568Z,90.46
2022-11-27T00:20:35.587Z,90.67
2022-11-27T00:21:35.541Z,90.97
2022-11-27T00:22:35.536Z,90.97
2022-11-27T00:23:35.517Z,90.87
2022-11-27T00:24:35.530Z,91.08
2022-11-27T00:25:35.506Z,90.77
2022-11-27T00:26:38.180Z,90.77
2022-11-27T00:27:35.482Z,90.77
2022-11-27T00:28:35.510Z,90.56
2022-11-27T00:29:35.468Z,90.46
2022-11-27T00:30:35.455Z,90.26
2022-11-27T00:31:35.534Z,90.67
2022-11-27T00:32:35.429Z,90.16
2022-11-27T00:33:35.422Z,90.16
2022-11-27T00:34:35.425Z,90.32
2022-11-27T00:35:35.439Z,89.95
2022-11-27T00:36:35.404Z,89.95
2022-11-27T00:37:35.384Z,89.81
2022-11-27T00:38:38.707Z,89.39
2022-11-27T00:39:35.352Z,90.11
2022-11-27T00:40:35.334Z,89.70
2022-11-27T00:41:35.383Z,90.01
2022-11-27T00:42:36.565Z,89.50
2022-11-27T00:43:43.560Z,89.39
2022-11-27T00:44:36.304Z,89.75
2022-11-27T00:45:35.288Z,89.75
2022-11-27T00:46:35.342Z,89.95
2022-11-27T00:47:35.274Z,89.43
2022-11-27T00:48:35.265Z,89.64
2022-11-27T00:49:35.245Z,89.33
2022-11-27T00:50:35.226Z,89.43
2022-11-27T00:51:35.216Z,89.37
2022-11-27T00:52:35.239Z,90.67
2022-11-27T00:53:35.203Z,90.20
2022-11-27T00:54:35.186Z,90.09
2022-11-27T00:55:35.172Z,90.16
2022-11-27T00:56:35.170Z,90.05
2022-11-27T00:57:35.185Z,90.26
2022-11-27T00:58:35.165Z,90.40
2022-11-27T00:59:35.141Z,90.05
2022-11-27T01:00:35.120Z,90.16
2022-11-27T01:01:35.188Z,90.67
2022-11-27T01:02:35.222Z,90.67
2022-11-27T01:03:35.111Z,90.26
2022-11-27T01:04:35.083Z,89.64
2022-11-27T01:05:35.082Z,89.54
2022-11-27T01:06:35.052Z,89.84
2022-11-27T01:07:35.094Z,89.69
2022-11-27T01:08:35.051Z,89.48
2022-11-27T01:09:35.039Z,89.89
2022-11-27T01:10:35.014Z,89.48
2022-11-27T01:11:35.021Z,89.37
2022-11-27T01:12:34.990Z,89.48
2022-11-27T01:13:34.986Z,89.37
2022-11-27T01:14:34.984Z,89.89
2022-11-27T01:15:34.967Z,89.78
2022-11-27T01:16:35.011Z,89.69
2022-11-27T01:17:44.089Z,89.78
2022-11-27T01:18:34.933Z,89.43
2022-11-27T01:19:34.953Z,89.48
2022-11-27T01:20:34.906Z,89.27
2022-11-27T01:21:34.901Z,89.23
2022-11-27T01:22:34.884Z,88.96
2022-11-27T01:23:34.871Z,89.33
2022-11-27T01:24:34.881Z,89.75
2022-11-27T01:25:34.873Z,89.07
2022-11-27T01:26:34.838Z,89.27
2022-11-27T01:27:34.831Z,89.37
2022-11-27T01:28:34.828Z,89.64
2022-11-27T01:29:34.819Z,89.17
2022-11-27T01:30:34.816Z,89.48
2022-11-27T01:31:34.854Z,89.17
2022-11-27T01:32:34.775Z,89.48
2022-11-27T01:33:34.800Z,88.82
2022-11-27T01:34:34.753Z,89.13
2022-11-27T01:35:34.753Z,89.23
2022-11-27T01:36:34.764Z,88.96
2022-11-27T01:37:34.721Z,89.03
2022-11-27T01:38:34.709Z,88.51
2022-11-27T01:39:34.697Z,88.92
2022-11-27T01:40:34.710Z,88.72
2022-11-27T01:41:34.680Z,88.62
2022-11-27T01:42:34.681Z,89.13
2022-11-27T01:43:34.660Z,89.03
2022-11-27T01:44:34.649Z,88.10
2022-11-27T01:45:34.634Z,88.41
2022-11-27T01:46:34.701Z,87.90
2022-11-27T01:47:34.619Z,88.21
2022-11-27T01:48:34.604Z,88.00
2022-11-27T01:49:34.616Z,88.00
2022-11-27T01:50:34.593Z,87.70
2022-11-27T01:51:34.598Z,87.96
2022-11-27T01:52:34.565Z,87.96
2022-11-27T01:53:34.552Z,87.34
2022-11-27T01:54:34.546Z,87.55
2022-11-27T01:55:34.546Z,87.49
2022-11-27T01:56:34.549Z,87.65
2022-11-27T01:57:34.522Z,87.24
2022-11-27T01:58:34.506Z,87.34
2022-11-27T01:59:34.487Z,87.65
2022-11-27T02:00:34.476Z,87.14
2022-11-27T02:01:34.537Z,87.45
2022-11-27T02:02:34.542Z,87.14
2022-11-27T02:03:34.442Z,87.45
2022-11-27T02:04:34.431Z,87.24
2022-11-27T02:05:34.428Z,87.34
2022-11-27T02:06:34.410Z,87.38
2022-11-27T02:07:34.539Z,87.28
2022-11-27T02:08:34.392Z,87.04
2022-11-27T02:09:34.383Z,87.24
2022-11-27T02:10:34.368Z,87.14
2022-11-27T02:11:34.382Z,87.28
2022-11-27T02:12:34.366Z,87.70
2022-11-27T02:13:34.361Z,87.18
2022-11-27T02:14:34.323Z,87.38
2022-11-27T02:15:34.315Z,87.70
2022-11-27T02:16:34.350Z,87.59
2022-11-27T02:17:34.309Z,87.49
2022-11-27T02:18:34.297Z,88.00
2022-11-27T02:19:34.270Z,88.21
2022-11-27T02:20:34.258Z,88.62
2022-11-27T02:21:34.249Z,88.66
2022-11-27T02:22:34.238Z,88.45
2022-11-27T02:23:34.244Z,88.56
2022-11-27T02:24:34.228Z,88.35
2022-11-27T02:25:34.227Z,88.35
2022-11-27T02:26:34.194Z,89.07
2022-11-27T02:27:34.188Z,89.27
2022-11-27T02:28:34.197Z,89.17
2022-11-27T02:29:34.170Z,88.96
2022-11-27T02:30:34.155Z,89.27
2022-11-27T02:31:34.244Z,89.07
2022-11-27T02:32:34.152Z,88.96
2022-11-27T02:33:34.122Z,88.45
2022-11-27T02:34:34.129Z,88.96
2022-11-27T02:35:34.106Z,88.86
2022-11-27T02:36:34.090Z,89.52
2022-11-27T02:37:34.085Z,89.21
2022-11-27T02:38:34.087Z,89.21
2022-11-27T02:39:34.063Z,89.93
2022-11-27T02:40:34.065Z,89.42
2022-11-27T02:41:34.045Z,89.83
2022-11-27T02:42:34.130Z,89.72
2022-11-27T02:43:34.018Z,89.72
2022-11-27T02:44:34.019Z,89.42
2022-11-27T02:45:34.017Z,90.14
2022-11-27T02:46:34.075Z,90.18
2022-11-27T02:47:33.969Z,90.24
2022-11-27T02:48:33.957Z,90.14
2022-11-27T02:49:33.950Z,90.44
2022-11-27T02:50:33.957Z,90.14
2022-11-27T02:51:33.930Z,90.28
2022-11-27T02:52:33.926Z,90.34
2022-11-27T02:53:33.913Z,90.34
2022-11-27T02:54:33.901Z,90.28
2022-11-27T02:55:33.887Z,90.28
2022-11-27T02:56:33.895Z,90.28
2022-11-27T02:57:33.870Z,90.59
2022-11-27T02:58:33.972Z,90.59
2022-11-27T02:59:33.841Z,90.18
2022-11-27T03:00:33.834Z,90.48
2022-11-27T03:01:33.909Z,90.69
2022-11-27T03:02:33.861Z,90.89
2022-11-27T03:03:33.799Z,90.94
2022-11-27T03:04:33.785Z,90.69
2022-11-27T03:05:33.782Z,91.25
2022-11-27T03:06:33.790Z,91.20
2022-11-27T03:07:33.874Z,91.14
2022-11-27T03:08:33.742Z,90.73
2022-11-27T03:09:33.740Z,90.73
2022-11-27T03:10:33.750Z,90.32
2022-11-27T03:11:33.732Z,90.42
2022-11-27T03:12:33.705Z,90.83
2022-11-27T03:13:33.705Z,90.94
2022-11-27T03:14:33.800Z,91.14
2022-11-27T03:15:33.732Z,91.14
2022-11-27T03:16:33.814Z,90.83
2022-11-27T03:17:33.658Z,90.88
2022-11-27T03:18:33.656Z,90.73
2022-11-27T03:19:33.633Z,90.67
2022-11-27T03:20:33.615Z,90.88
2022-11-27T03:21:33.610Z,90.88
2022-11-27T03:22:33.625Z,90.88
2022-11-27T03:23:33.599Z,90.88
2022-11-27T03:24:33.579Z,91.08
2022-11-27T03:25:33.568Z,90.78
2022-11-27T03:26:33.552Z,91.08
2022-11-27T03:27:33.544Z,90.83
2022-11-27T03:28:33.542Z,90.57
2022-11-27T03:29:33.519Z,90.88
2022-11-27T03:30:33.614Z,90.78
2022-11-27T03:31:33.592Z,90.67
2022-11-27T03:32:33.497Z,90.36
2022-11-27T03:33:33.500Z,89.95
2022-11-27T03:34:33.477Z,90.36
2022-11-27T03:35:33.457Z,89.75
2022-11-27T03:36:33.455Z,89.75
2022-11-27T03:37:33.445Z,90.67
2022-11-27T03:38:33.423Z,90.57
2022-11-27T03:39:33.588Z,89.54
2022-11-27T03:40:33.399Z,89.75
2022-11-27T03:41:33.396Z,89.54
2022-11-27T03:42:33.388Z,89.54
2022-11-27T03:43:33.368Z,89.85
2022-11-27T03:44:33.367Z,89.34
2022-11-27T03:45:33.347Z,89.44
2022-11-27T03:46:33.513Z,89.54
2022-11-27T03:47:33.349Z,89.29
2022-11-27T03:48:33.319Z,89.54
2022-11-27T03:49:33.318Z,89.19
2022-11-27T03:50:33.296Z,89.44
2022-11-27T03:51:33.281Z,89.34
2022-11-27T03:52:33.277Z,89.13
2022-11-27T03:53:33.278Z,89.64
2022-11-27T03:54:33.261Z,90.00
2022-11-27T03:55:33.242Z,90.00
2022-11-27T03:56:33.232Z,90.00
2022-11-27T03:57:33.219Z,89.89
2022-11-27T03:58:33.215Z,90.20
2022-11-27T03:59:33.214Z,90.41
2022-11-27T04:00:33.199Z,90.00
2022-11-27T04:01:33.246Z,90.30
2022-11-27T04:02:33.283Z,90.61
2022-11-27T04:03:33.179Z,90.41
2022-11-27T04:04:33.180Z,90.51
2022-11-27T04:05:33.137Z,89.89
2022-11-27T04:06:33.139Z,90.41
2022-11-27T04:07:33.192Z,90.51
2022-11-27T04:08:33.140Z,90.51
2022-11-27T04:09:33.087Z,90.51
2022-11-27T04:10:33.091Z,90.81
2022-11-27T04:11:33.061Z,90.55
2022-11-27T04:12:33.061Z,90.41
2022-11-27T04:13:33.044Z,90.34
2022-11-27T04:14:33.031Z,90.41
2022-11-27T04:15:33.062Z,90.34
2022-11-27T04:16:33.078Z,90.66
2022-11-27T04:17:33.010Z,90.45
2022-11-27T04:18:33.100Z,90.86
2022-11-27T04:19:32.976Z,89.83
2022-11-27T04:20:32.979Z,89.94
2022-11-27T04:21:32.998Z,90.03
2022-11-27T04:22:32.982Z,90.59
2022-11-27T04:23:32.938Z,89.67
2022-11-27T04:24:32.933Z,89.77
2022-11-27T04:25:32.943Z,90.69
2022-11-27T04:26:32.905Z,90.49
2022-11-27T04:27:32.887Z,90.08
2022-11-27T04:28:32.886Z,89.97
2022-11-27T04:29:32.898Z,89.87
2022-11-27T04:30:32.886Z,89.87
2022-11-27T04:31:32.947Z,90.01
2022-11-27T04:32:32.848Z,89.81
2022-11-27T04:33:32.839Z,90.53
2022-11-27T04:34:32.929Z,90.01
2022-11-27T04:35:32.802Z,90.73
2022-11-27T04:36:38.842Z,90.78
2022-11-27T04:37:33.806Z,90.53
2022-11-27T04:38:32.816Z,90.53
2022-11-27T04:39:32.758Z,90.43
2022-11-27T04:40:32.792Z,89.81
2022-11-27T04:41:32.746Z,90.33
2022-11-27T04:42:32.723Z,90.12
2022-11-27T04:43:32.752Z,90.22
2022-11-27T04:44:32.715Z,90.01
2022-11-27T04:45:32.699Z,90.01
2022-11-27T04:46:32.751Z,89.81
2022-11-27T04:47:32.674Z,89.81
2022-11-27T04:48:32.691Z,89.91
2022-11-27T04:49:32.655Z,90.08
2022-11-27T04:50:32.790Z,89.56
2022-11-27T04:51:32.634Z,89.77
2022-11-27T04:52:32.629Z,89.77
2022-11-27T04:53:32.615Z,89.36
2022-11-27T04:54:32.610Z,88.74
2022-11-27T04:55:32.588Z,88.84
2022-11-27T04:56:32.609Z,88.99
2022-11-27T04:57:32.574Z,88.26
2022-11-27T04:58:32.566Z,89.09
2022-11-27T04:59:32.538Z,88.89
2022-11-27T05:00:32.602Z,88.26
2022-11-27T05:01:32.558Z,88.57
2022-11-27T05:02:32.600Z,88.47
2022-11-27T05:03:32.512Z,88.17
2022-11-27T05:04:32.493Z,88.06
2022-11-27T05:05:32.487Z,88.62
2022-11-27T05:06:32.618Z,88.57
2022-11-27T05:07:32.552Z,89.09
2022-11-27T05:08:32.454Z,89.29
2022-11-27T05:09:32.434Z,88.78
2022-11-27T05:10:32.438Z,88.99
2022-11-27T05:11:32.412Z,88.37
2022-11-27T05:12:32.437Z,87.96
2022-11-27T05:13:32.392Z,88.06
2022-11-27T05:14:32.389Z,87.96
2022-11-27T05:15:32.371Z,88.06
2022-11-27T05:16:32.437Z,88.17
2022-11-27T05:17:32.396Z,88.26
2022-11-27T05:18:32.343Z,88.06
2022-11-27T05:19:32.329Z,87.65
2022-11-27T05:20:32.326Z,87.65
2022-11-27T05:21:32.309Z,87.65
2022-11-27T05:22:32.421Z,87.85
2022-11-27T05:23:32.323Z,87.65
2022-11-27T05:24:32.283Z,87.75
2022-11-27T05:25:32.266Z,88.57
2022-11-27T05:26:32.255Z,87.65
2022-11-27T05:27:32.243Z,87.75
2022-11-27T05:28:32.280Z,88.06
2022-11-27T05:29:32.229Z,87.85
2022-11-27T05:30:32.213Z,87.65
2022-11-27T05:31:32.218Z,87.34
2022-11-27T05:32:32.198Z,87.65
2022-11-27T05:33:32.191Z,87.48
2022-11-27T05:34:32.200Z,87.54
2022-11-27T05:35:32.159Z,87.79
2022-11-27T05:36:32.152Z,87.79
2022-11-27T05:37:32.144Z,87.38
2022-11-27T05:38:32.264Z,87.38
2022-11-27T05:39:32.169Z,87.27
2022-11-27T05:40:32.107Z,87.79
2022-11-27T05:41:32.100Z,87.32
2022-11-27T05:42:32.091Z,87.83
2022-11-27T05:43:32.076Z,88.04
2022-11-27T05:44:32.084Z,88.14
2022-11-27T05:45:32.095Z,88.14
2022-11-27T05:46:32.188Z,88.39
2022-11-27T05:47:32.040Z,88.04
2022-11-27T05:48:32.017Z,88.04
2022-11-27T05:49:32.051Z,88.18
2022-11-27T05:50:32.009Z,88.18
2022-11-27T05:51:31.996Z,88.49
2022-11-27T05:52:31.984Z,88.29
2022-11-27T05:53:31.974Z,88.70
2022-11-27T05:54:38.061Z,89.11
2022-11-27T05:55:33.102Z,89.01
2022-11-27T05:56:31.942Z,89.01
2022-11-27T05:57:31.933Z,88.80
2022-11-27T05:58:31.936Z,88.95
2022-11-27T05:59:31.905Z,88.95
2022-11-27T06:00:31.936Z,88.43
2022-11-27T06:01:31.958Z,89.05
2022-11-27T06:02:32.025Z,88.80
2022-11-27T06:03:31.934Z,89.11
2022-11-27T06:04:31.850Z,88.59
2022-11-27T06:05:31.844Z,89.11
2022-11-27T06:06:31.892Z,88.39
2022-11-27T06:07:31.925Z,88.29
2022-11-27T06:08:31.814Z,88.49
2022-11-27T06:09:31.806Z,88.39
2022-11-27T06:10:31.789Z,88.59
2022-11-27T06:11:31.914Z,88.70
2022-11-27T06:12:31.800Z,88.49
2022-11-27T06:13:31.754Z,87.87
2022-11-27T06:14:31.749Z,88.39
2022-11-27T06:15:31.737Z,88.18
2022-11-27T06:16:31.831Z,88.29
2022-11-27T06:17:31.745Z,87.66
2022-11-27T06:18:31.707Z,88.80
2022-11-27T06:19:31.700Z,88.70
2022-11-27T06:20:31.685Z,87.87
2022-11-27T06:21:31.671Z,87.87
2022-11-27T06:22:31.694Z,88.29
2022-11-27T06:23:31.677Z,88.02
2022-11-27T06:24:31.636Z,87.56
2022-11-27T06:25:31.632Z,87.87
2022-11-27T06:26:31.626Z,87.56
2022-11-27T06:27:31.743Z,87.81
2022-11-27T06:28:31.596Z,87.60
2022-11-27T06:29:31.590Z,87.35
2022-11-27T06:30:31.590Z,87.81
2022-11-27T06:31:31.594Z,87.87
2022-11-27T06:32:31.588Z,87.66
2022-11-27T06:33:31.541Z,87.71
2022-11-27T06:34:31.537Z,87.77
2022-11-27T06:35:31.527Z,87.71
2022-11-27T06:36:31.518Z,87.71
2022-11-27T06:37:31.504Z,87.71
2022-11-27T06:38:31.513Z,87.87
2022-11-27T06:39:31.479Z,87.56
2022-11-27T06:40:31.498Z,87.26
2022-11-27T06:41:31.456Z,87.05
2022-11-27T06:42:31.453Z,87.26
2022-11-27T06:43:31.581Z,87.46
2022-11-27T06:44:31.431Z,86.53
2022-11-27T06:45:31.472Z,86.53
2022-11-27T06:46:31.411Z,86.74
2022-11-27T06:47:31.420Z,86.43
2022-11-27T06:48:31.387Z,86.36
2022-11-27T06:49:31.379Z,86.57
2022-11-27T06:50:31.360Z,86.74
2022-11-27T06:51:31.355Z,86.63
2022-11-27T06:52:33.620Z,86.12
2022-11-27T06:53:31.329Z,86.32
2022-11-27T06:54:31.352Z,86.47
2022-11-27T06:55:31.317Z,86.43
2022-11-27T06:56:31.298Z,86.26
2022-11-27T06:57:31.289Z,86.16
2022-11-27T06:58:31.468Z,87.71
2022-11-27T06:59:31.391Z,86.16
2022-11-27T07:00:31.260Z,86.05
2022-11-27T07:01:31.367Z,87.46
2022-11-27T07:02:31.274Z,87.26
2022-11-27T07:03:31.225Z,87.19
2022-11-27T07:04:31.240Z,86.16
2022-11-27T07:05:31.229Z,86.63
2022-11-27T07:06:31.198Z,86.57
2022-11-27T07:07:31.202Z,86.78
2022-11-27T07:08:31.173Z,85.95
2022-11-27T07:09:31.179Z,86.26
2022-11-27T07:10:31.149Z,85.95
2022-11-27T07:11:31.144Z,86.30
2022-11-27T07:12:31.137Z,86.47
2022-11-27T07:13:31.126Z,87.50
2022-11-27T07:14:31.140Z,87.19
2022-11-27T07:15:31.207Z,87.50
2022-11-27T07:16:31.122Z,86.68
2022-11-27T07:17:42.691Z,86.47
2022-11-27T07:18:31.074Z,86.26
2022-11-27T07:19:31.136Z,85.95
2022-11-27T07:20:31.080Z,86.26
2022-11-27T07:21:31.036Z,86.43
2022-11-27T07:22:31.037Z,85.81
2022-11-27T07:23:31.008Z,86.22
2022-11-27T07:24:31.090Z,86.12
2022-11-27T07:25:31.003Z,85.91
2022-11-27T07:26:31.033Z,86.05
2022-11-27T07:27:31.021Z,85.81
2022-11-27T07:28:30.968Z,86.12
2022-11-27T07:29:30.994Z,86.12
2022-11-27T07:30:30.944Z,85.81
2022-11-27T07:31:31.193Z,85.81
2022-11-27T07:32:30.936Z,85.91
2022-11-27T07:33:30.944Z,85.91
2022-11-27T07:34:30.913Z,85.71
2022-11-27T07:35:30.897Z,85.81
2022-11-27T07:36:30.911Z,85.71
2022-11-27T07:37:30.889Z,86.02
2022-11-27T07:38:30.872Z,85.67
2022-11-27T07:40:00.290Z,84.84
2022-11-27T07:40:31.864Z,84.84
2022-11-27T07:41:34.090Z,84.74
2022-11-27T07:42:37.872Z,84.74
2022-11-27T07:43:31.813Z,84.94
2022-11-27T07:44:30.794Z,84.43
2022-11-27T07:45:30.841Z,84.74
2022-11-27T07:46:30.775Z,84.22
2022-11-27T07:47:30.869Z,84.84
2022-11-27T07:48:30.772Z,84.12
2022-11-27T07:49:30.733Z,84.64
2022-11-27T07:50:30.731Z,84.39
2022-11-27T07:51:30.717Z,83.67
2022-11-27T07:52:30.704Z,83.47
2022-11-27T07:53:30.728Z,83.15
2022-11-27T07:54:30.677Z,83.77
2022-11-27T07:55:30.676Z,83.26
2022-11-27T07:56:30.669Z,83.77
2022-11-27T07:57:30.658Z,83.77
2022-11-27T07:58:30.677Z,83.87
2022-11-27T07:59:30.631Z,83.26
2022-11-27T08:00:30.631Z,83.26
2022-11-27T08:01:30.664Z,83.36
2022-11-27T08:02:30.594Z,82.95
2022-11-27T08:03:30.695Z,83.05
2022-11-27T08:04:30.691Z,83.12
2022-11-27T08:05:30.566Z,82.77
2022-11-27T08:06:30.568Z,82.11
2022-11-27T08:07:30.672Z,81.05
2022-11-27T08:08:30.542Z,81.07
2022-11-27T08:09:30.576Z,79.08
2022-11-27T08:10:30.510Z,78.64
2022-11-27T08:11:30.534Z,77.71
2022-11-27T08:12:30.498Z,77.88
2022-11-27T08:13:30.477Z,76.14
2022-11-27T08:14:30.614Z,76.34
2022-11-27T08:15:30.479Z,76.04
2022-11-27T08:16:30.562Z,75.90
2022-11-27T08:17:30.517Z,76.00
2022-11-27T08:18:30.431Z,75.18
2022-11-27T08:19:30.541Z,74.36
2022-11-27T08:20:30.412Z,74.05
2022-11-27T08:21:30.410Z,74.02
2022-11-27T08:22:30.410Z,73.81
2022-11-27T08:23:30.388Z,74.19
2022-11-27T08:24:30.363Z,73.57
2022-11-27T08:25:30.349Z,73.10
2022-11-27T08:26:30.364Z,71.86
2022-11-27T08:27:30.332Z,71.94
2022-11-27T08:28:31.182Z,71.01
2022-11-27T08:29:33.920Z,70.95
2022-11-27T08:30:30.316Z,70.27
2022-11-27T08:31:30.367Z,68.57
2022-11-27T08:32:30.292Z,66.64
2022-11-27T08:33:30.946Z,65.36
2022-11-27T08:34:30.375Z,63.26
2022-11-27T08:35:30.362Z,62.32
2022-11-27T08:36:30.241Z,60.63
2022-11-27T08:37:30.220Z,59.99
2022-11-27T08:38:30.212Z,58.98
2022-11-27T08:39:30.198Z,59.08
2022-11-27T08:40:30.210Z,59.48
2022-11-27T08:41:30.176Z,58.95
2022-11-27T08:42:30.164Z,59.08
2022-11-27T08:43:30.153Z,58.85
2022-11-27T08:44:30.182Z,58.98
2022-11-27T08:45:30.234Z,58.98
2022-11-27T08:46:30.125Z,59.18
2022-11-27T08:47:30.120Z,58.91
2022-11-27T08:48:30.101Z,59.44
2022-11-27T08:49:30.275Z,60.28
2022-11-27T08:50:30.086Z,60.72
2022-11-27T08:51:30.175Z,61.36
2022-11-27T08:52:30.058Z,61.56
2022-11-27T08:53:30.047Z,61.10
2022-11-27T08:54:30.090Z,60.05
2022-11-27T08:55:30.043Z,59.34
2022-11-27T08:56:30.134Z,59.27
2022-11-27T08:57:30.042Z,59.80
2022-11-27T08:58:30.022Z,61.29
2022-11-27T08:59:30.027Z,62.02
2022-11-27T09:00:30.037Z,63.20
2022-11-27T09:01:30.154Z,63.78
2022-11-27T09:02:29.972Z,65.31
2022-11-27T09:03:29.946Z,65.13
2022-11-27T09:04:30.006Z,65.64
2022-11-27T09:05:29.941Z,65.34
2022-11-27T09:06:29.969Z,65.67
2022-11-27T09:07:30.141Z,65.80
2022-11-27T09:08:29.886Z,66.86
2022-11-27T09:09:29.885Z,67.30
2022-11-27T09:10:29.878Z,68.08
2022-11-27T09:11:29.856Z,68.19
2022-11-27T09:12:29.838Z,67.60
2022-11-27T09:13:29.838Z,68.01
2022-11-27T09:14:29.830Z,68.12
2022-11-27T09:15:29.839Z,68.55
2022-11-27T09:16:29.895Z,68.79
2022-11-27T09:17:29.787Z,69.34
2022-11-27T09:18:29.783Z,69.47
2022-11-27T09:19:29.762Z,70.29
2022-11-27T09:20:29.752Z,69.89
2022-11-27T09:21:29.763Z,68.63
2022-11-27T09:22:29.734Z,68.12
2022-11-27T09:23:29.899Z,68.01
2022-11-27T09:24:29.781Z,67.50
2022-11-27T09:25:29.776Z,67.37
2022-11-27T09:26:29.693Z,67.57
2022-11-27T09:27:29.698Z,67.10
2022-11-27T09:28:31.514Z,66.86
2022-11-27T09:29:29.667Z,65.25
2022-11-27T09:30:29.689Z,63.89
2022-11-27T09:31:29.716Z,62.51
2022-11-27T09:32:29.661Z,61.20
2022-11-27T09:33:30.629Z,59.92
2022-11-27T09:34:33.377Z,58.65
2022-11-27T09:35:30.669Z,56.97
2022-11-27T09:36:29.609Z,56.44
2022-11-27T09:37:29.575Z,56.54
2022-11-27T09:38:29.574Z,56.01
2022-11-27T09:39:29.677Z,55.90
2022-11-27T09:40:29.544Z,55.70
2022-11-27T09:41:29.533Z,55.85
2022-11-27T09:42:29.534Z,56.09
2022-11-27T09:43:29.528Z,56.52
2022-11-27T09:44:29.495Z,57.15
2022-11-27T09:45:29.546Z,57.66
2022-11-27T09:46:29.469Z,58.70
2022-11-27T09:47:29.466Z,59.27
2022-11-27T09:48:29.457Z,59.91
2022-11-27T09:49:29.455Z,60.34
2022-11-27T09:50:29.427Z,61.31
2022-11-27T09:51:29.435Z,61.54
2022-11-27T09:52:29.422Z,62.77
2022-11-27T09:53:29.394Z,63.31
2022-11-27T09:54:29.381Z,63.00
2022-11-27T09:55:29.509Z,63.64
2022-11-27T09:56:29.365Z,64.15
2022-11-27T09:57:29.355Z,65.00
2022-11-27T09:58:29.352Z,65.03
2022-11-27T09:59:29.364Z,64.62
2022-11-27T10:00:29.332Z,65.06
2022-11-27T10:01:37.185Z,65.88
2022-11-27T10:02:30.423Z,66.59
2022-11-27T10:03:29.403Z,66.93
2022-11-27T10:04:36.195Z,67.34
2022-11-27T10:05:30.824Z,67.24
2022-11-27T10:06:29.253Z,67.34
2022-11-27T10:07:29.328Z,67.92
2022-11-27T10:08:29.251Z,68.26
2022-11-27T10:09:29.228Z,67.54
2022-11-27T10:10:29.211Z,67.54
2022-11-27T10:11:29.358Z,68.08
2022-11-27T10:12:29.189Z,68.42
2022-11-27T10:13:29.181Z,68.73
2022-11-27T10:14:29.171Z,68.52
2022-11-27T10:15:29.168Z,68.84
2022-11-27T10:16:29.207Z,68.63
2022-11-27T10:17:29.176Z,68.49
2022-11-27T10:18:29.232Z,68.42
2022-11-27T10:19:29.119Z,68.80
2022-11-27T10:20:29.121Z,68.73
2022-11-27T10:21:29.752Z,68.60
2022-11-27T10:22:29.090Z,68.16
2022-11-27T10:23:29.077Z,67.95
2022-11-27T10:24:29.065Z,67.61
2022-11-27T10:25:29.067Z,67.10
2022-11-27T10:26:29.753Z,66.66
2022-11-27T10:27:29.145Z,65.64
2022-11-27T10:28:29.016Z,65.74
2022-11-27T10:29:29.042Z,65.64
2022-11-27T10:30:29.001Z,65.74
2022-11-27T10:31:29.071Z,65.84
2022-11-27T10:32:56.307Z,65.92
2022-11-27T10:33:29.961Z,65.92
2022-11-27T10:34:28.956Z,65.20
2022-11-27T10:35:28.970Z,65.20
2022-11-27T10:36:28.930Z,65.51
2022-11-27T10:37:28.948Z,65.31
2022-11-27T10:38:28.932Z,65.10
2022-11-27T10:39:28.912Z,65.31
2022-11-27T10:40:28.895Z,65.61
2022-11-27T10:41:48.048Z,65.95
2022-11-27T10:42:29.884Z,66.74
2022-11-27T10:43:28.995Z,66.83
2022-11-27T10:44:28.843Z,66.36
2022-11-27T10:45:29.824Z,66.25
2022-11-27T10:46:28.928Z,66.56
2022-11-27T10:47:33.495Z,67.00
2022-11-27T10:48:29.832Z,66.77
2022-11-27T10:49:28.797Z,67.18
2022-11-27T10:50:28.785Z,66.77
2022-11-27T10:51:28.772Z,66.80
2022-11-27T10:52:28.767Z,67.00
2022-11-27T10:53:28.754Z,67.41
2022-11-27T10:54:28.748Z,67.10
2022-11-27T10:55:28.724Z,67.13
2022-11-27T10:56:28.719Z,67.65
2022-11-27T10:57:28.702Z,68.02
2022-11-27T10:58:31.418Z,67.82
2022-11-27T10:59:33.164Z,68.05
2022-11-27T11:00:29.680Z,68.23
2022-11-27T11:01:28.728Z,67.82
2022-11-27T11:02:28.701Z,68.33
2022-11-27T11:03:28.653Z,68.12
2022-11-27T11:04:37.863Z,67.75
2022-11-27T11:06:29.607Z,68.87
2022-11-27T11:07:28.666Z,68.87
2022-11-27T11:08:28.582Z,69.18
2022-11-27T11:09:28.584Z,68.70
2022-11-27T11:10:28.566Z,68.80
2022-11-27T11:11:28.547Z,69.42
2022-11-27T11:12:28.549Z,68.80
2022-11-27T11:13:28.539Z,69.11
2022-11-27T11:14:28.527Z,69.21
2022-11-27T11:15:28.636Z,69.62
2022-11-27T11:16:34.493Z,69.59
2022-11-27T11:17:29.576Z,69.38
2022-11-27T11:18:28.483Z,68.57
2022-11-27T11:19:28.517Z,69.38
2022-11-27T11:20:28.451Z,69.31
2022-11-27T11:21:28.448Z,69.62
2022-11-27T11:22:28.460Z,68.73
2022-11-27T11:23:28.415Z,69.04
2022-11-27T11:24:28.449Z,69.68
2022-11-27T11:25:28.433Z,69.79
2022-11-27T11:26:28.399Z,70.50
2022-11-27T11:27:28.373Z,70.40
2022-11-27T11:28:28.364Z,70.20
2022-11-27T11:29:28.363Z,70.33
2022-11-27T11:30:31.188Z,70.29
2022-11-27T11:31:36.449Z,70.29
2022-11-27T11:32:28.500Z,70.09
2022-11-27T11:33:28.319Z,69.89
2022-11-27T11:34:28.303Z,70.06
2022-11-27T11:35:28.296Z,69.45
2022-11-27T11:36:28.297Z,69.45
2022-11-27T11:37:28.269Z,69.34
2022-11-27T11:38:28.257Z,68.93
2022-11-27T11:39:28.252Z,69.24
2022-11-27T11:40:28.254Z,69.48
2022-11-27T11:41:28.294Z,69.48
2022-11-27T11:42:28.227Z,70.09
2022-11-27T11:43:28.211Z,69.99
2022-11-27T11:44:28.196Z,70.29
2022-11-27T11:45:31.363Z,70.20
2022-11-27T11:46:28.415Z,70.47
2022-11-27T11:47:28.201Z,70.37
2022-11-27T11:48:28.170Z,70.57
2022-11-27T11:49:28.134Z,70.47
2022-11-27T11:50:28.129Z,69.85
2022-11-27T11:51:29.516Z,70.20
2022-11-27T11:52:28.109Z,70.81
2022-11-27T11:53:28.093Z,70.98
2022-11-27T11:54:28.091Z,70.78
2022-11-27T11:55:28.068Z,70.67
2022-11-27T11:56:28.065Z,70.84
2022-11-27T11:57:28.077Z,70.75
2022-11-27T11:58:28.037Z,70.13
2022-11-27T11:59:28.033Z,70.20
2022-11-27T12:00:30.879Z,69.79
2022-11-27T12:01:29.010Z,69.55
2022-11-27T12:02:28.216Z,71.12
2022-11-27T12:03:28.015Z,70.81
2022-11-27T12:04:28.046Z,71.12
2022-11-27T12:05:27.958Z,71.62
2022-11-27T12:06:27.974Z,71.49
2022-11-27T12:07:28.015Z,70.98
2022-11-27T12:08:28.307Z,70.91
2022-11-27T12:09:27.929Z,71.15
2022-11-27T12:10:27.914Z,71.12
2022-11-27T12:11:27.906Z,72.07
2022-11-27T12:12:27.890Z,71.97
2022-11-27T12:13:32.938Z,71.97
2022-11-27T12:14:28.886Z,71.97
2022-11-27T12:15:27.858Z,71.97
2022-11-27T12:16:27.888Z,71.86
2022-11-27T12:17:27.835Z,72.04
2022-11-27T12:18:27.954Z,72.07
2022-11-27T12:19:27.842Z,72.17
2022-11-27T12:20:27.797Z,71.97
2022-11-27T12:21:27.930Z,72.07
2022-11-27T12:22:27.789Z,72.07
2022-11-27T12:23:27.771Z,71.90
2022-11-27T12:24:27.871Z,72.55
2022-11-27T12:25:27.747Z,73.50
2022-11-27T12:26:27.760Z,74.02
2022-11-27T12:27:27.735Z,73.91
2022-11-27T12:28:27.753Z,74.02
2022-11-27T12:29:27.703Z,74.46
2022-11-27T12:30:27.709Z,74.73
2022-11-27T12:31:27.779Z,74.63
2022-11-27T12:32:27.683Z,74.43
2022-11-27T12:33:27.686Z,74.36
2022-11-27T12:34:27.763Z,74.66
2022-11-27T12:35:27.640Z,75.59
2022-11-27T12:36:27.626Z,75.28
2022-11-27T12:37:27.665Z,75.24
2022-11-27T12:38:27.608Z,75.04
2022-11-27T12:39:27.602Z,75.28
2022-11-27T12:40:27.585Z,75.28
2022-11-27T12:41:27.575Z,76.04
2022-11-27T12:42:27.563Z,75.73
2022-11-27T12:43:27.581Z,76.04
2022-11-27T12:44:27.576Z,76.24
2022-11-27T12:45:27.672Z,76.20
2022-11-27T12:46:27.585Z,76.41
2022-11-27T12:47:27.539Z,76.00
2022-11-27T12:48:27.655Z,75.59
2022-11-27T12:49:27.596Z,75.59
2022-11-27T12:50:27.616Z,76.10
2022-11-27T12:51:27.508Z,75.69
2022-11-27T12:52:27.542Z,75.66
2022-11-27T12:53:27.476Z,75.66